sensor_id;sensor_type;location;lat;lon;timestamp;pressure;altitude;pressure_sealevel;temperature;humidity
3096;BME280;1558;42.700;23.360;2023-06-24T00:01:43;95285.13;;;24.38;86.86
3096;BME280;1558;42.700;23.360;2023-06-24T00:04:11;95278.13;;;24.33;87.17
3096;BME280;1558;42.700;23.360;2023-06-24T00:06:43;95284.19;;;24.25;87.71
3096;BME280;1558;42.700;23.360;2023-06-24T00:09:13;95269.84;;;24.10;87.69
3096;BME280;1558;42.700;23.360;2023-06-24T00:11:41;95288.16;;;24.20;88.39
3096;BME280;1558;42.700;23.360;2023-06-24T00:14:09;95276.38;;;24.19;88.25
3096;BME280;1558;42.700;23.360;2023-06-24T00:16:37;95266.41;;;24.02;88.83
3096;BME280;1558;42.700;23.360;2023-06-24T00:19:06;95280.19;;;24.02;89.32
3096;BME280;1558;42.700;23.360;2023-06-24T00:21:35;95276.28;;;24.00;89.14
3096;BME280;1558;42.700;23.360;2023-06-24T00:24:04;95246.53;;;23.88;89.23
3096;BME280;1558;42.700;23.360;2023-06-24T00:26:34;95274.78;;;23.95;89.30
3096;BME280;1558;42.700;23.360;2023-06-24T00:29:02;95278.69;;;23.98;89.52
3096;BME280;1558;42.700;23.360;2023-06-24T00:31:30;95278.78;;;23.91;89.47
3096;BME280;1558;42.700;23.360;2023-06-24T00:33:58;95281.47;;;23.94;88.79
3096;BME280;1558;42.700;23.360;2023-06-24T00:36:26;95278.72;;;23.94;89.29
3096;BME280;1558;42.700;23.360;2023-06-24T00:38:55;95283.56;;;23.87;89.37
3096;BME280;1558;42.700;23.360;2023-06-24T00:41:24;95277.69;;;23.85;89.54
3096;BME280;1558;42.700;23.360;2023-06-24T00:43:54;95283.56;;;23.87;89.54
3096;BME280;1558;42.700;23.360;2023-06-24T00:46:24;95279.97;;;23.90;88.97
3096;BME280;1558;42.700;23.360;2023-06-24T00:48:55;95282.13;;;23.79;89.41
3096;BME280;1558;42.700;23.360;2023-06-24T00:51:23;95272.91;;;23.89;88.69
3096;BME280;1558;42.700;23.360;2023-06-24T00:53:53;95273.22;;;23.94;88.60
3096;BME280;1558;42.700;23.360;2023-06-24T00:56:21;95261.50;;;23.87;89.06
3096;BME280;1558;42.700;23.360;2023-06-24T00:58:55;95266.97;;;23.90;88.53
3096;BME280;1558;42.700;23.360;2023-06-24T01:01:26;95275.69;;;23.89;88.58
3096;BME280;1558;42.700;23.360;2023-06-24T01:03:55;95274.09;;;23.88;88.57
3096;BME280;1558;42.700;23.360;2023-06-24T01:06:31;95268.47;;;23.95;87.82
3096;BME280;1558;42.700;23.360;2023-06-24T01:08:59;95260.75;;;23.86;88.50
3096;BME280;1558;42.700;23.360;2023-06-24T01:11:30;95260.00;;;23.82;88.75
3096;BME280;1558;42.700;23.360;2023-06-24T01:14:00;95255.25;;;23.60;89.29
3096;BME280;1558;42.700;23.360;2023-06-24T01:16:35;95265.91;;;23.58;89.31
3096;BME280;1558;42.700;23.360;2023-06-24T01:19:32;95258.47;;;23.54;89.51
3096;BME280;1558;42.700;23.360;2023-06-24T01:22:10;95250.94;;;23.58;89.31
3096;BME280;1558;42.700;23.360;2023-06-24T01:24:59;95250.22;;;23.54;89.61
3096;BME280;1558;42.700;23.360;2023-06-24T01:27:47;95247.72;;;23.64;89.64
3096;BME280;1558;42.700;23.360;2023-06-24T01:33:32;95263.31;;;23.74;89.17
3096;BME280;1558;42.700;23.360;2023-06-24T01:36:06;95271.56;;;23.74;89.35
3096;BME280;1558;42.700;23.360;2023-06-24T01:38:38;95258.22;;;23.72;89.45
3096;BME280;1558;42.700;23.360;2023-06-24T01:41:09;95259.50;;;23.64;89.67
3096;BME280;1558;42.700;23.360;2023-06-24T01:43:42;95262.41;;;23.53;89.97
3096;BME280;1558;42.700;23.360;2023-06-24T01:46:12;95267.19;;;23.49;89.91
3096;BME280;1558;42.700;23.360;2023-06-24T01:48:44;95279.03;;;23.46;90.20
3096;BME280;1558;42.700;23.360;2023-06-24T01:51:17;95284.66;;;23.66;89.94
3096;BME280;1558;42.700;23.360;2023-06-24T01:53:49;95296.03;;;23.68;89.64
3096;BME280;1558;42.700;23.360;2023-06-24T01:56:22;95293.72;;;23.67;89.11
3096;BME280;1558;42.700;23.360;2023-06-24T01:58:53;95299.94;;;23.71;88.95
3096;BME280;1558;42.700;23.360;2023-06-24T02:01:23;95277.53;;;23.69;88.57
3096;BME280;1558;42.700;23.360;2023-06-24T02:03:54;95291.53;;;23.81;87.92
3096;BME280;1558;42.700;23.360;2023-06-24T02:06:24;95286.16;;;23.97;87.54
3096;BME280;1558;42.700;23.360;2023-06-24T02:08:54;95307.97;;;24.15;88.29
3096;BME280;1558;42.700;23.360;2023-06-24T02:11:26;95310.13;;;24.27;88.00
3096;BME280;1558;42.700;23.360;2023-06-24T02:13:56;95301.13;;;24.23;88.08
3096;BME280;1558;42.700;23.360;2023-06-24T02:16:27;95309.75;;;24.25;87.57
3096;BME280;1558;42.700;23.360;2023-06-24T02:18:58;95292.50;;;24.21;88.15
3096;BME280;1558;42.700;23.360;2023-06-24T02:21:29;95285.53;;;24.13;87.72
3096;BME280;1558;42.700;23.360;2023-06-24T02:23:58;95305.63;;;24.13;88.07
3096;BME280;1558;42.700;23.360;2023-06-24T02:26:26;95308.56;;;23.99;89.53
3096;BME280;1558;42.700;23.360;2023-06-24T02:28:55;95318.88;;;23.95;90.45
3096;BME280;1558;42.700;23.360;2023-06-24T02:31:23;95318.41;;;23.74;90.72
3096;BME280;1558;42.700;23.360;2023-06-24T02:33:52;95330.34;;;23.64;91.50
3096;BME280;1558;42.700;23.360;2023-06-24T02:36:21;95348.94;;;23.56;92.23
3096;BME280;1558;42.700;23.360;2023-06-24T02:38:50;95349.25;;;23.62;92.44
3096;BME280;1558;42.700;23.360;2023-06-24T02:41:18;95342.28;;;23.53;92.98
3096;BME280;1558;42.700;23.360;2023-06-24T02:43:46;95355.41;;;23.42;93.06
3096;BME280;1558;42.700;23.360;2023-06-24T02:46:15;95356.66;;;23.34;94.17
3096;BME280;1558;42.700;23.360;2023-06-24T02:48:45;95348.03;;;23.32;95.40
3096;BME280;1558;42.700;23.360;2023-06-24T02:51:13;95347.72;;;23.27;95.69
3096;BME280;1558;42.700;23.360;2023-06-24T02:53:45;95346.31;;;23.12;96.60
3096;BME280;1558;42.700;23.360;2023-06-24T02:56:13;95353.69;;;23.22;96.51
3096;BME280;1558;42.700;23.360;2023-06-24T02:58:47;95360.78;;;23.19;97.74
3096;BME280;1558;42.700;23.360;2023-06-24T03:01:16;95362.09;;;23.08;98.15
3096;BME280;1558;42.700;23.360;2023-06-24T03:03:46;95359.50;;;22.94;100.00
3096;BME280;1558;42.700;23.360;2023-06-24T03:06:16;95360.94;;;23.05;100.00
3096;BME280;1558;42.700;23.360;2023-06-24T03:08:47;95366.84;;;23.04;100.00
3096;BME280;1558;42.700;23.360;2023-06-24T03:11:16;95355.22;;;22.89;100.00
3096;BME280;1558;42.700;23.360;2023-06-24T03:13:44;95359.41;;;23.01;100.00
3096;BME280;1558;42.700;23.360;2023-06-24T03:16:12;95358.41;;;22.84;100.00
3096;BME280;1558;42.700;23.360;2023-06-24T03:18:41;95369.41;;;22.84;100.00
3096;BME280;1558;42.700;23.360;2023-06-24T03:21:10;95368.94;;;22.92;100.00
3096;BME280;1558;42.700;23.360;2023-06-24T03:23:38;95365.47;;;22.85;100.00
3096;BME280;1558;42.700;23.360;2023-06-24T03:26:08;95369.06;;;22.82;100.00
3096;BME280;1558;42.700;23.360;2023-06-24T03:28:36;95368.50;;;22.98;100.00
3096;BME280;1558;42.700;23.360;2023-06-24T03:31:05;95369.59;;;23.04;100.00
3096;BME280;1558;42.700;23.360;2023-06-24T03:33:33;95382.97;;;23.05;100.00
3096;BME280;1558;42.700;23.360;2023-06-24T03:36:01;95383.75;;;23.06;100.00
3096;BME280;1558;42.700;23.360;2023-06-24T03:38:29;95384.13;;;23.04;100.00
3096;BME280;1558;42.700;23.360;2023-06-24T03:40:58;95393.88;;;23.12;100.00
3096;BME280;1558;42.700;23.360;2023-06-24T03:43:27;95401.28;;;23.19;100.00
3096;BME280;1558;42.700;23.360;2023-06-24T03:45:55;95379.84;;;23.03;100.00
3096;BME280;1558;42.700;23.360;2023-06-24T03:48:23;95386.88;;;23.04;100.00
3096;BME280;1558;42.700;23.360;2023-06-24T03:50:51;95390.78;;;23.10;100.00
3096;BME280;1558;42.700;23.360;2023-06-24T03:53:19;95404.78;;;23.23;100.00
3096;BME280;1558;42.700;23.360;2023-06-24T03:55:47;95396.03;;;23.31;100.00
3096;BME280;1558;42.700;23.360;2023-06-24T03:58:15;95396.84;;;23.28;100.00
3096;BME280;1558;42.700;23.360;2023-06-24T04:00:45;95392.09;;;23.36;100.00
3096;BME280;1558;42.700;23.360;2023-06-24T04:03:14;95395.81;;;23.52;99.93
3096;BME280;1558;42.700;23.360;2023-06-24T04:05:42;95393.84;;;23.53;98.64
3096;BME280;1558;42.700;23.360;2023-06-24T04:08:11;95413.16;;;23.49;98.69
3096;BME280;1558;42.700;23.360;2023-06-24T04:10:39;95404.00;;;23.60;98.35
3096;BME280;1558;42.700;23.360;2023-06-24T04:13:09;95401.06;;;23.74;97.94
3096;BME280;1558;42.700;23.360;2023-06-24T04:15:38;95376.91;;;23.54;97.24
3096;BME280;1558;42.700;23.360;2023-06-24T04:18:07;95399.47;;;23.73;96.81
3096;BME280;1558;42.700;23.360;2023-06-24T04:20:35;95389.06;;;23.87;96.29
3096;BME280;1558;42.700;23.360;2023-06-24T04:23:04;95387.19;;;24.11;94.83
3096;BME280;1558;42.700;23.360;2023-06-24T04:25:35;95381.31;;;24.09;94.39
3096;BME280;1558;42.700;23.360;2023-06-24T04:28:04;95385.53;;;24.17;94.32
3096;BME280;1558;42.700;23.360;2023-06-24T04:30:32;95364.81;;;24.05;95.00
3096;BME280;1558;42.700;23.360;2023-06-24T04:33:02;95378.97;;;24.34;94.28
3096;BME280;1558;42.700;23.360;2023-06-24T04:35:31;95379.72;;;24.35;94.07
3096;BME280;1558;42.700;23.360;2023-06-24T04:38:00;95379.72;;;24.35;94.05
3096;BME280;1558;42.700;23.360;2023-06-24T04:40:28;95389.38;;;24.46;92.85
3096;BME280;1558;42.700;23.360;2023-06-24T04:42:57;95392.59;;;24.68;91.37
3096;BME280;1558;42.700;23.360;2023-06-24T04:45:25;95391.81;;;24.67;91.42
3096;BME280;1558;42.700;23.360;2023-06-24T04:47:53;95392.09;;;24.73;91.03
3096;BME280;1558;42.700;23.360;2023-06-24T04:50:21;95398.31;;;24.80;90.47
3096;BME280;1558;42.700;23.360;2023-06-24T04:52:54;95402.50;;;25.12;89.45
3096;BME280;1558;42.700;23.360;2023-06-24T04:55:23;95402.59;;;25.28;88.89
3096;BME280;1558;42.700;23.360;2023-06-24T04:57:51;95403.16;;;25.39;88.69
3096;BME280;1558;42.700;23.360;2023-06-24T05:00:19;95402.78;;;25.60;86.24
3096;BME280;1558;42.700;23.360;2023-06-24T05:02:50;95390.03;;;25.66;86.17
3096;BME280;1558;42.700;23.360;2023-06-24T05:05:19;95391.59;;;25.67;85.26
3096;BME280;1558;42.700;23.360;2023-06-24T05:07:48;95382.97;;;25.42;86.46
3096;BME280;1558;42.700;23.360;2023-06-24T05:10:17;95393.22;;;25.65;86.08
3096;BME280;1558;42.700;23.360;2023-06-24T05:12:45;95352.66;;;25.58;84.52
3096;BME280;1558;42.700;23.360;2023-06-24T05:15:13;95391.59;;;25.67;84.34
3096;BME280;1558;42.700;23.360;2023-06-24T05:17:44;95390.19;;;26.14;83.86
3096;BME280;1558;42.700;23.360;2023-06-24T05:20:12;95386.06;;;26.39;82.71
3096;BME280;1558;42.700;23.360;2023-06-24T05:22:40;95384.72;;;26.79;80.99
3096;BME280;1558;42.700;23.360;2023-06-24T05:25:09;95388.91;;;27.16;79.24
3096;BME280;1558;42.700;23.360;2023-06-24T05:27:38;95288.50;;;26.83;77.08
3096;BME280;1558;42.700;23.360;2023-06-24T05:30:07;95388.34;;;27.66;75.58
3096;BME280;1558;42.700;23.360;2023-06-24T05:32:41;95376.63;;;27.87;74.06
3096;BME280;1558;42.700;23.360;2023-06-24T05:35:10;95387.59;;;28.19;73.64
3096;BME280;1558;42.700;23.360;2023-06-24T05:37:39;95394.69;;;28.33;72.80
3096;BME280;1558;42.700;23.360;2023-06-24T05:40:11;95386.91;;;28.40;72.39
3096;BME280;1558;42.700;23.360;2023-06-24T05:42:40;95396.44;;;28.90;71.01
3096;BME280;1558;42.700;23.360;2023-06-24T05:45:09;95389.25;;;29.14;69.64
3096;BME280;1558;42.700;23.360;2023-06-24T05:47:38;95392.47;;;28.65;71.31
3096;BME280;1558;42.700;23.360;2023-06-24T05:50:07;95366.25;;;29.13;69.77
3096;BME280;1558;42.700;23.360;2023-06-24T05:52:35;95384.78;;;29.85;67.67
3096;BME280;1558;42.700;23.360;2023-06-24T05:55:04;95373.97;;;29.87;65.26
3096;BME280;1558;42.700;23.360;2023-06-24T05:57:32;95377.88;;;29.55;64.64
3096;BME280;1558;42.700;23.360;2023-06-24T06:00:03;95369.38;;;29.03;66.04
3096;BME280;1558;42.700;23.360;2023-06-24T06:02:31;95383.59;;;29.73;65.34
3096;BME280;1558;42.700;23.360;2023-06-24T06:05:03;95383.38;;;30.11;63.94
3096;BME280;1558;42.700;23.360;2023-06-24T06:07:31;95372.63;;;30.00;62.73
3096;BME280;1558;42.700;23.360;2023-06-24T06:10:00;95369.03;;;30.22;63.29
3096;BME280;1558;42.700;23.360;2023-06-24T06:12:30;95371.78;;;30.43;62.16
3096;BME280;1558;42.700;23.360;2023-06-24T06:15:00;95368.59;;;30.54;62.14
3096;BME280;1558;42.700;23.360;2023-06-24T06:17:29;95359.41;;;30.93;61.25
3096;BME280;1558;42.700;23.360;2023-06-24T06:19:57;95369.59;;;30.78;60.28
3096;BME280;1558;42.700;23.360;2023-06-24T06:22:26;95344.25;;;30.14;60.96
3096;BME280;1558;42.700;23.360;2023-06-24T06:24:54;95371.66;;;30.47;60.88
3096;BME280;1558;42.700;23.360;2023-06-24T06:27:22;95359.50;;;30.71;60.41
3096;BME280;1558;42.700;23.360;2023-06-24T06:29:51;95362.09;;;31.42;60.23
3096;BME280;1558;42.700;23.360;2023-06-24T06:32:20;95373.56;;;31.53;59.05
3096;BME280;1558;42.700;23.360;2023-06-24T06:34:49;95368.56;;;31.03;58.78
3096;BME280;1558;42.700;23.360;2023-06-24T06:37:17;95363.28;;;31.05;58.95
3096;BME280;1558;42.700;23.360;2023-06-24T06:39:45;95375.72;;;31.13;58.89
3096;BME280;1558;42.700;23.360;2023-06-24T06:42:13;95377.09;;;31.81;56.83
3096;BME280;1558;42.700;23.360;2023-06-24T06:44:42;95349.53;;;31.19;57.93
3096;BME280;1558;42.700;23.360;2023-06-24T06:47:10;95384.13;;;31.49;59.31
3096;BME280;1558;42.700;23.360;2023-06-24T06:49:39;95382.38;;;32.06;57.49
3096;BME280;1558;42.700;23.360;2023-06-24T06:52:09;95386.28;;;32.41;56.65
3096;BME280;1558;42.700;23.360;2023-06-24T06:54:38;95387.63;;;32.64;56.40
3096;BME280;1558;42.700;23.360;2023-06-24T06:57:06;95380.69;;;32.41;56.32
3096;BME280;1558;42.700;23.360;2023-06-24T06:59:35;95385.00;;;33.17;56.51
3096;BME280;1558;42.700;23.360;2023-06-24T07:02:03;95382.03;;;32.64;55.04
3096;BME280;1558;42.700;23.360;2023-06-24T07:04:31;95387.50;;;32.58;56.63
3096;BME280;1558;42.700;23.360;2023-06-24T07:06:59;95381.47;;;32.84;55.63
3096;BME280;1558;42.700;23.360;2023-06-24T07:09:29;95383.25;;;33.43;54.56
3096;BME280;1558;42.700;23.360;2023-06-24T07:11:57;95378.84;;;33.51;52.55
3096;BME280;1558;42.700;23.360;2023-06-24T07:14:26;95381.44;;;33.40;53.95
3096;BME280;1558;42.700;23.360;2023-06-24T07:16:55;95390.03;;;32.80;53.43
3096;BME280;1558;42.700;23.360;2023-06-24T07:19:23;95382.22;;;33.17;53.38
3096;BME280;1558;42.700;23.360;2023-06-24T07:21:51;95382.47;;;33.66;51.88
3096;BME280;1558;42.700;23.360;2023-06-24T07:24:19;95391.44;;;33.56;51.25
3096;BME280;1558;42.700;23.360;2023-06-24T07:26:49;95375.00;;;34.01;50.43
3096;BME280;1558;42.700;23.360;2023-06-24T07:29:17;95371.69;;;33.50;50.63
3096;BME280;1558;42.700;23.360;2023-06-24T07:31:45;95382.94;;;34.32;50.59
3096;BME280;1558;42.700;23.360;2023-06-24T07:34:13;95356.16;;;34.17;47.34
3096;BME280;1558;42.700;23.360;2023-06-24T07:36:41;95384.16;;;33.87;49.36
3096;BME280;1558;42.700;23.360;2023-06-24T07:39:09;95378.50;;;34.90;47.96
3096;BME280;1558;42.700;23.360;2023-06-24T07:41:37;95379.34;;;34.96;46.40
3096;BME280;1558;42.700;23.360;2023-06-24T07:44:08;95381.09;;;34.93;46.86
3096;BME280;1558;42.700;23.360;2023-06-24T07:46:36;95366.69;;;34.07;47.20
3096;BME280;1558;42.700;23.360;2023-06-24T07:49:05;95370.44;;;34.62;46.37
3096;BME280;1558;42.700;23.360;2023-06-24T07:51:33;95374.03;;;34.34;48.61
3096;BME280;1558;42.700;23.360;2023-06-24T07:54:01;95376.50;;;34.76;47.44
3096;BME280;1558;42.700;23.360;2023-06-24T07:56:30;95373.72;;;34.96;46.87
3096;BME280;1558;42.700;23.360;2023-06-24T07:58:58;95372.69;;;34.58;47.44
3096;BME280;1558;42.700;23.360;2023-06-24T08:01:29;95384.84;;;34.55;47.77
3096;BME280;1558;42.700;23.360;2023-06-24T08:03:57;95370.31;;;34.71;47.08
3096;BME280;1558;42.700;23.360;2023-06-24T08:06:26;95385.50;;;34.65;47.98
3096;BME280;1558;42.700;23.360;2023-06-24T08:08:54;95381.63;;;34.97;46.33
3096;BME280;1558;42.700;23.360;2023-06-24T08:11:22;95390.72;;;34.72;46.51
3096;BME280;1558;42.700;23.360;2023-06-24T08:13:50;95386.34;;;35.20;46.70
3096;BME280;1558;42.700;23.360;2023-06-24T08:16:19;95367.72;;;36.09;45.68
3096;BME280;1558;42.700;23.360;2023-06-24T08:18:49;95377.66;;;36.05;44.24
3096;BME280;1558;42.700;23.360;2023-06-24T08:21:17;95378.38;;;34.99;45.47
3096;BME280;1558;42.700;23.360;2023-06-24T08:23:45;95373.63;;;34.41;46.94
3096;BME280;1558;42.700;23.360;2023-06-24T08:26:13;95374.28;;;35.00;46.10
3096;BME280;1558;42.700;23.360;2023-06-24T08:28:43;95368.38;;;35.32;44.87
3096;BME280;1558;42.700;23.360;2023-06-24T08:31:13;95368.84;;;35.71;45.18
3096;BME280;1558;42.700;23.360;2023-06-24T08:33:43;95370.59;;;35.69;44.52
3096;BME280;1558;42.700;23.360;2023-06-24T08:36:13;95368.22;;;35.21;45.67
3096;BME280;1558;42.700;23.360;2023-06-24T08:38:42;95364.44;;;35.04;45.20
3096;BME280;1558;42.700;23.360;2023-06-24T08:41:10;95368.56;;;35.69;45.17
3096;BME280;1558;42.700;23.360;2023-06-24T08:43:38;95361.84;;;36.38;42.99
3096;BME280;1558;42.700;23.360;2023-06-24T08:46:07;95353.91;;;36.06;42.21
3096;BME280;1558;42.700;23.360;2023-06-24T08:48:39;95273.94;;;35.75;43.51
3096;BME280;1558;42.700;23.360;2023-06-24T08:51:09;95324.13;;;36.19;43.08
3096;BME280;1558;42.700;23.360;2023-06-24T08:53:42;95337.53;;;36.66;42.14
3096;BME280;1558;42.700;23.360;2023-06-24T08:56:11;95343.56;;;35.97;42.13
3096;BME280;1558;42.700;23.360;2023-06-24T08:58:39;95352.50;;;35.70;42.58
3096;BME280;1558;42.700;23.360;2023-06-24T09:01:08;95319.88;;;35.78;42.96
3096;BME280;1558;42.700;23.360;2023-06-24T09:03:36;95346.44;;;36.28;41.58
3096;BME280;1558;42.700;23.360;2023-06-24T09:06:05;95343.38;;;36.00;41.54
3096;BME280;1558;42.700;23.360;2023-06-24T09:08:33;95336.34;;;36.11;42.02
3096;BME280;1558;42.700;23.360;2023-06-24T09:11:04;95330.88;;;37.06;42.03
3096;BME280;1558;42.700;23.360;2023-06-24T09:13:34;95338.69;;;36.86;40.44
3096;BME280;1558;42.700;23.360;2023-06-24T09:16:13;95325.56;;;37.14;41.56
3096;BME280;1558;42.700;23.360;2023-06-24T09:18:47;95337.78;;;37.53;40.61
3096;BME280;1558;42.700;23.360;2023-06-24T09:21:21;95333.38;;;37.41;39.80
3096;BME280;1558;42.700;23.360;2023-06-24T09:23:52;95341.00;;;36.87;41.23
3096;BME280;1558;42.700;23.360;2023-06-24T09:26:25;95347.72;;;36.58;40.62
3096;BME280;1558;42.700;23.360;2023-06-24T09:28:53;95318.06;;;36.57;40.87
3096;BME280;1558;42.700;23.360;2023-06-24T09:31:23;95317.91;;;37.25;40.62
3096;BME280;1558;42.700;23.360;2023-06-24T09:33:51;95344.63;;;38.55;38.08
3096;BME280;1558;42.700;23.360;2023-06-24T09:36:19;95346.63;;;38.16;37.72
3096;BME280;1558;42.700;23.360;2023-06-24T09:38:47;95338.41;;;38.02;38.49
3096;BME280;1558;42.700;23.360;2023-06-24T09:41:16;95328.91;;;37.88;38.06
3096;BME280;1558;42.700;23.360;2023-06-24T09:43:46;95337.66;;;38.07;37.85
3096;BME280;1558;42.700;23.360;2023-06-24T09:46:14;95348.59;;;37.77;39.99
3096;BME280;1558;42.700;23.360;2023-06-24T09:48:45;95336.75;;;37.51;39.39
3096;BME280;1558;42.700;23.360;2023-06-24T09:51:13;95346.72;;;37.46;39.30
3096;BME280;1558;42.700;23.360;2023-06-24T09:53:42;95335.47;;;36.98;39.57
3096;BME280;1558;42.700;23.360;2023-06-24T09:56:13;95331.84;;;37.40;39.80
3096;BME280;1558;42.700;23.360;2023-06-24T09:58:42;95296.22;;;36.10;41.16
3096;BME280;1558;42.700;23.360;2023-06-24T10:01:13;95307.94;;;36.77;41.24
3096;BME280;1558;42.700;23.360;2023-06-24T10:03:43;95314.31;;;37.95;39.42
3096;BME280;1558;42.700;23.360;2023-06-24T10:06:11;95326.19;;;37.40;39.87
3096;BME280;1558;42.700;23.360;2023-06-24T10:08:40;95318.47;;;36.82;39.48
3096;BME280;1558;42.700;23.360;2023-06-24T10:11:08;95312.78;;;37.13;39.51
3096;BME280;1558;42.700;23.360;2023-06-24T10:13:36;95311.97;;;37.77;38.96
3096;BME280;1558;42.700;23.360;2023-06-24T10:16:04;95301.00;;;37.90;38.83
3096;BME280;1558;42.700;23.360;2023-06-24T10:18:37;95270.22;;;37.70;38.99
3096;BME280;1558;42.700;23.360;2023-06-24T10:21:06;95296.31;;;37.59;39.49
3096;BME280;1558;42.700;23.360;2023-06-24T10:23:39;95301.56;;;37.35;40.20
3096;BME280;1558;42.700;23.360;2023-06-24T10:26:09;95277.28;;;36.79;39.79
3096;BME280;1558;42.700;23.360;2023-06-24T10:29:08;95256.34;;;37.50;38.95
3096;BME280;1558;42.700;23.360;2023-06-24T10:31:52;95280.53;;;37.14;39.26
3096;BME280;1558;42.700;23.360;2023-06-24T10:34:39;95262.47;;;36.84;40.01
3096;BME280;1558;42.700;23.360;2023-06-24T10:37:12;95269.22;;;37.03;39.12
3096;BME280;1558;42.700;23.360;2023-06-24T10:39:51;95269.50;;;36.62;39.44
3096;BME280;1558;42.700;23.360;2023-06-24T10:42:29;95211.94;;;36.52;39.23
3096;BME280;1558;42.700;23.360;2023-06-24T10:44:59;95252.31;;;38.06;38.25
3096;BME280;1558;42.700;23.360;2023-06-24T10:47:29;95243.09;;;38.22;37.63
3096;BME280;1558;42.700;23.360;2023-06-24T10:49:59;95131.84;;;37.01;36.79
3096;BME280;1558;42.700;23.360;2023-06-24T10:52:27;95233.47;;;37.20;37.63
3096;BME280;1558;42.700;23.360;2023-06-24T10:54:57;95161.03;;;36.03;38.82
3096;BME280;1558;42.700;23.360;2023-06-24T10:57:26;95196.50;;;36.90;38.76
3096;BME280;1558;42.700;23.360;2023-06-24T10:59:56;95230.22;;;37.44;38.17
3096;BME280;1558;42.700;23.360;2023-06-24T11:02:24;95222.81;;;37.46;37.69
3096;BME280;1558;42.700;23.360;2023-06-24T11:04:55;95218.66;;;38.63;36.04
3096;BME280;1558;42.700;23.360;2023-06-24T11:07:25;95212.25;;;38.74;35.45
3096;BME280;1558;42.700;23.360;2023-06-24T11:09:54;95217.63;;;38.67;33.41
3096;BME280;1558;42.700;23.360;2023-06-24T11:12:26;95220.56;;;38.06;34.84
3096;BME280;1558;42.700;23.360;2023-06-24T11:14:55;95220.03;;;38.02;34.15
3096;BME280;1558;42.700;23.360;2023-06-24T11:17:24;95226.88;;;37.45;34.63
3096;BME280;1558;42.700;23.360;2023-06-24T11:19:53;95222.75;;;37.35;34.90
3096;BME280;1558;42.700;23.360;2023-06-24T11:22:22;95227.38;;;36.31;36.79
3096;BME280;1558;42.700;23.360;2023-06-24T11:24:52;95064.50;;;35.63;36.32
3096;BME280;1558;42.700;23.360;2023-06-24T11:27:24;95226.34;;;36.29;36.16
3096;BME280;1558;42.700;23.360;2023-06-24T11:29:54;95224.84;;;36.81;35.13
3096;BME280;1558;42.700;23.360;2023-06-24T11:32:25;95221.06;;;37.99;33.65
3096;BME280;1558;42.700;23.360;2023-06-24T11:34:54;95217.97;;;38.46;32.87
3096;BME280;1558;42.700;23.360;2023-06-24T11:37:30;95219.50;;;38.36;31.95
3096;BME280;1558;42.700;23.360;2023-06-24T11:40:04;95217.88;;;37.30;33.27
3096;BME280;1558;42.700;23.360;2023-06-24T11:42:35;95201.22;;;36.56;32.87
3096;BME280;1558;42.700;23.360;2023-06-24T11:45:05;95213.16;;;36.09;34.05
3096;BME280;1558;42.700;23.360;2023-06-24T11:47:34;95207.50;;;35.72;35.10
3096;BME280;1558;42.700;23.360;2023-06-24T11:50:05;95209.22;;;35.13;36.38
3096;BME280;1558;42.700;23.360;2023-06-24T11:52:41;95187.44;;;34.62;37.83
3096;BME280;1558;42.700;23.360;2023-06-24T11:55:19;95191.59;;;34.52;38.33
3096;BME280;1558;42.700;23.360;2023-06-24T11:57:50;95188.69;;;34.81;37.56
3096;BME280;1558;42.700;23.360;2023-06-24T12:00:22;95152.13;;;34.70;38.16
3096;BME280;1558;42.700;23.360;2023-06-24T12:02:54;95150.84;;;34.71;38.13
3096;BME280;1558;42.700;23.360;2023-06-24T12:05:24;95173.00;;;34.69;39.39
3096;BME280;1558;42.700;23.360;2023-06-24T12:07:59;95165.16;;;34.53;39.89
3096;BME280;1558;42.700;23.360;2023-06-24T12:10:30;95148.66;;;34.81;40.23
3096;BME280;1558;42.700;23.360;2023-06-24T12:13:01;95148.28;;;35.45;39.47
3096;BME280;1558;42.700;23.360;2023-06-24T12:15:29;95157.25;;;35.49;39.48
3096;BME280;1558;42.700;23.360;2023-06-24T12:17:58;95138.56;;;35.14;39.17
3096;BME280;1558;42.700;23.360;2023-06-24T12:20:26;95125.22;;;34.18;38.84
3096;BME280;1558;42.700;23.360;2023-06-24T12:22:58;95154.25;;;34.40;40.35
3096;BME280;1558;42.700;23.360;2023-06-24T12:25:26;95116.34;;;34.45;40.78
3096;BME280;1558;42.700;23.360;2023-06-24T12:27:56;95141.59;;;34.25;41.32
3096;BME280;1558;42.700;23.360;2023-06-24T12:30:26;95134.03;;;34.11;41.39
3096;BME280;1558;42.700;23.360;2023-06-24T12:32:55;95103.63;;;34.03;41.86
3096;BME280;1558;42.700;23.360;2023-06-24T12:35:23;95126.25;;;33.85;41.06
3096;BME280;1558;42.700;23.360;2023-06-24T12:37:53;95142.44;;;33.61;42.53
3096;BME280;1558;42.700;23.360;2023-06-24T12:40:21;95152.00;;;33.55;42.10
3096;BME280;1558;42.700;23.360;2023-06-24T12:42:49;95157.00;;;33.36;42.02
3096;BME280;1558;42.700;23.360;2023-06-24T12:45:18;95167.97;;;32.96;42.80
3096;BME280;1558;42.700;23.360;2023-06-24T12:47:47;95185.78;;;32.84;43.31
3096;BME280;1558;42.700;23.360;2023-06-24T12:50:18;95197.03;;;32.74;43.68
3096;BME280;1558;42.700;23.360;2023-06-24T12:52:46;95190.88;;;32.70;44.52
3096;BME280;1558;42.700;23.360;2023-06-24T12:55:14;95203.72;;;32.53;45.15
3096;BME280;1558;42.700;23.360;2023-06-24T12:57:43;95199.31;;;32.61;45.06
3096;BME280;1558;42.700;23.360;2023-06-24T13:00:12;95171.38;;;32.38;45.27
3096;BME280;1558;42.700;23.360;2023-06-24T13:02:42;95202.47;;;32.78;45.37
3096;BME280;1558;42.700;23.360;2023-06-24T13:05:10;95054.78;;;31.76;43.48
3096;BME280;1558;42.700;23.360;2023-06-24T13:07:38;95186.59;;;32.60;46.43
3096;BME280;1558;42.700;23.360;2023-06-24T13:10:07;95184.78;;;32.48;47.09
3096;BME280;1558;42.700;23.360;2023-06-24T13:12:35;95167.59;;;32.41;46.88
3096;BME280;1558;42.700;23.360;2023-06-24T13:15:05;95151.81;;;32.61;46.17
3096;BME280;1558;42.700;23.360;2023-06-24T13:17:33;95152.88;;;32.64;46.19
3096;BME280;1558;42.700;23.360;2023-06-24T13:20:03;95153.59;;;32.50;47.18
3096;BME280;1558;42.700;23.360;2023-06-24T13:22:32;95161.44;;;32.60;47.01
3096;BME280;1558;42.700;23.360;2023-06-24T13:25:00;95171.63;;;32.87;46.84
3096;BME280;1558;42.700;23.360;2023-06-24T13:27:28;95199.75;;;32.84;47.35